HOF weather

Al Ahsa Airport
Ash Sharqiyah Region, Saudi Arabia

Public forecast

Using degrees Celsius for public forecast. Weather courtesy of forecast.io.

METAR (pilot weather report)

Retrieved 2019/09/22 07:00 UTC (57 minutes ago):

OEAH 220700Z 18007KT CAVOK 38/01 Q1006 NOSIG

TAF (pilot weather forecast)

Forecast is more than 12 hours old.

Retrieved 2019/09/21 00:03 UTC (1 day ago):

TAF OEAH 212300Z 2200/2306 25008KT CAVOK BECMG 2207/2209 17008KT